Time;durP1;ratioP1;P1;durP2;ratioP2;P2;SDS_P1;SDS_P2;PMS_P1;PMS_P2;Temp;Humidity;BMP_temperature;BMP_pressure;BME280_temperature;BME280_humidity;BME280_pressure;Samples;Min_cycle;Max_cycle;Signal;HPM_P1;HPM_P2
2021/07/17 00:01:21;;;;;;;5.03;4.63;;;22.60;99.90;;;;;;5112261;28;20054;-73
2021/07/17 00:03:47;;;;;;;4.80;4.38;;;22.70;99.90;;;;;;5111082;28;20051;-72
2021/07/17 00:06:12;;;;;;;4.80;3.97;;;22.80;99.90;;;;;;5111895;28;20031;-72
2021/07/17 00:08:38;;;;;;;5.50;4.32;;;22.90;99.90;;;;;;5110161;28;20023;-72
2021/07/17 00:11:07;;;;;;;4.65;4.25;;;23.00;99.90;;;;;;5110704;28;20114;-72
2021/07/17 00:13:33;;;;;;;5.13;4.57;;;23.00;99.90;;;;;;5110677;28;20033;-72
2021/07/17 00:15:58;;;;;;;6.40;4.32;;;22.80;99.90;;;;;;5110661;28;20028;-72
2021/07/17 00:18:24;;;;;;;4.95;4.00;;;22.70;99.90;;;;;;5111369;28;20039;-70
2021/07/17 00:20:50;;;;;;;5.20;3.97;;;22.50;99.90;;;;;;5111216;28;20047;-72
2021/07/17 00:23:17;;;;;;;4.43;4.13;;;22.40;99.90;;;;;;5110951;28;20489;-72
2021/07/17 00:25:43;;;;;;;8.25;4.18;;;22.60;99.90;;;;;;5109699;28;20366;-72
2021/07/17 00:28:09;;;;;;;4.32;3.80;;;22.60;99.90;;;;;;5109688;28;20039;-73
2021/07/17 00:30:35;;;;;;;12.48;4.72;;;22.50;99.90;;;;;;5111679;28;20016;-72
2021/07/17 00:33:01;;;;;;;5.82;4.35;;;22.60;99.90;;;;;;5111361;28;20036;-72
2021/07/17 00:35:27;;;;;;;7.05;4.72;;;22.60;99.90;;;;;;5109880;28;20028;-72
2021/07/17 00:37:53;;;;;;;5.68;5.18;;;22.50;99.90;;;;;;5110839;28;20047;-72
2021/07/17 00:40:21;;;;;;;4.47;4.07;;;22.40;99.90;;;;;;5110839;28;20047;-72
2021/07/17 00:42:51;;;;;;;9.25;4.80;;;22.40;99.90;;;;;;5110797;28;20047;-72
2021/07/17 00:45:18;;;;;;;5.60;4.38;;;22.50;99.90;;;;;;5110799;28;20393;-72
2021/07/17 00:47:44;;;;;;;4.57;4.03;;;22.40;99.90;;;;;;5109469;28;20028;-72
2021/07/17 00:50:15;;;;;;;4.32;4.03;;;22.50;99.90;;;;;;5112944;28;20390;-72
2021/07/17 00:52:41;;;;;;;5.93;5.13;;;22.60;99.90;;;;;;5115144;28;20028;-72
2021/07/17 00:55:08;;;;;;;4.20;3.90;;;22.50;99.90;;;;;;5113774;28;20046;-72
2021/07/17 00:57:38;;;;;;;4.55;3.97;;;22.50;99.90;;;;;;5103725;28;20024;-73
2021/07/17 01:00:12;;;;;;;5.03;4.53;;;22.40;99.90;;;;;;5112449;28;20748;-72
2021/07/17 01:02:45;;;;;;;6.30;4.45;;;22.30;99.90;;;;;;5115096;28;20378;-72
2021/07/17 01:05:11;;;;;;;7.22;4.32;;;22.40;99.90;;;;;;5113476;28;20027;-72
2021/07/17 01:07:38;;;;;;;6.53;4.85;;;22.40;99.90;;;;;;5114773;28;20031;-72
2021/07/17 01:10:06;;;;;;;5.10;4.63;;;22.40;99.90;;;;;;5113492;28;20024;-72
2021/07/17 01:12:32;;;;;;;5.63;4.60;;;22.50;99.90;;;;;;5114690;28;20034;-72
2021/07/17 01:14:58;;;;;;;6.00;4.68;;;22.60;99.90;;;;;;5114441;28;20505;-71
2021/07/17 01:17:24;;;;;;;5.20;4.80;;;22.60;99.90;;;;;;5114269;28;20035;-71
2021/07/17 01:19:50;;;;;;;5.88;4.30;;;22.60;99.90;;;;;;5112961;28;20143;-72
2021/07/17 01:22:18;;;;;;;5.50;5.03;;;22.70;99.90;;;;;;5112920;28;20056;-73
2021/07/17 01:24:44;;;;;;;6.18;5.60;;;22.60;99.90;;;;;;5114442;28;20389;-72
2021/07/17 01:27:18;;;;;;;6.40;4.82;;;22.40;99.90;;;;;;5113057;28;20063;-72
2021/07/17 01:29:47;;;;;;;5.22;4.70;;;22.40;99.90;;;;;;5113048;28;20469;-72
2021/07/17 01:32:13;;;;;;;5.70;5.05;;;22.50;99.90;;;;;;5114880;28;20032;-73
2021/07/17 01:34:41;;;;;;;5.30;4.90;;;22.50;99.90;;;;;;5114146;28;20035;-72
2021/07/17 01:37:07;;;;;;;6.45;4.47;;;22.40;99.90;;;;;;5114064;28;20368;-72
2021/07/17 01:39:32;;;;;;;5.22;4.57;;;22.30;99.90;;;;;;5112545;28;20107;-72
2021/07/17 01:41:58;;;;;;;5.70;4.43;;;22.30;99.90;;;;;;5113912;28;20043;-72
2021/07/17 01:44:24;;;;;;;5.57;4.65;;;22.30;99.90;;;;;;5113899;28;20020;-72
2021/07/17 01:46:49;;;;;;;5.50;5.07;;;22.30;99.90;;;;;;5113915;28;20430;-72
2021/07/17 01:49:15;;;;;;;4.45;4.13;;;22.20;99.90;;;;;;5113639;28;20015;-72
2021/07/17 01:51:41;;;;;;;5.40;4.45;;;22.20;99.90;;;;;;5113788;28;20020;-73
2021/07/17 01:54:07;;;;;;;4.72;4.32;;;22.30;99.90;;;;;;5113531;28;20035;-72
2021/07/17 01:56:32;;;;;;;5.15;4.75;;;22.30;99.90;;;;;;5113468;28;20027;-72
2021/07/17 01:58:58;;;;;;;7.15;4.88;;;22.10;99.90;;;;;;5112050;28;20533;-73
2021/07/17 02:01:26;;;;;;;5.18;4.65;;;22.20;99.90;;;;;;5112738;28;20023;-73
2021/07/17 02:03:52;;;;;;;5.10;4.60;;;22.20;99.90;;;;;;5113327;28;20492;-72
2021/07/17 02:06:26;;;;;;;5.57;4.80;;;22.10;99.90;;;;;;5113351;28;20023;-72
2021/07/17 02:08:53;;;;;;;7.70;4.82;;;22.20;99.90;;;;;;5112100;28;20035;-71
2021/07/17 02:11:19;;;;;;;4.45;4.03;;;22.20;99.90;;;;;;5113037;28;20027;-72
2021/07/17 02:13:50;;;;;;;8.48;4.50;;;22.20;99.90;;;;;;5111758;28;20023;-73
2021/07/17 02:16:16;;;;;;;5.20;4.70;;;22.20;99.90;;;;;;5112098;28;20520;-72
2021/07/17 02:18:43;;;;;;;4.70;4.30;;;22.10;99.90;;;;;;5112972;28;20028;-73
2021/07/17 02:21:09;;;;;;;4.75;4.40;;;22.00;99.90;;;;;;5113054;28;20097;-73
2021/07/17 02:23:36;;;;;;;5.78;4.30;;;22.00;99.90;;;;;;5113110;28;20032;-73
2021/07/17 02:26:04;;;;;;;5.38;3.70;;;22.00;99.90;;;;;;5111661;28;20020;-73
2021/07/17 02:28:30;;;;;;;7.88;5.13;;;22.10;99.90;;;;;;5111649;28;20024;-72
2021/07/17 02:30:56;;;;;;;7.72;4.82;;;22.10;99.90;;;;;;5111652;28;20137;-73
2021/07/17 02:33:22;;;;;;;5.25;4.38;;;22.10;99.90;;;;;;5112937;28;20023;-72
2021/07/17 02:35:48;;;;;;;4.25;3.83;;;22.10;99.90;;;;;;5111731;28;20024;-73
2021/07/17 02:38:14;;;;;;;6.05;4.15;;;22.10;99.90;;;;;;5111487;28;20077;-73
2021/07/17 02:40:40;;;;;;;5.13;4.10;;;22.00;99.90;;;;;;5111632;28;20042;-72
2021/07/17 02:43:06;;;;;;;4.70;4.30;;;22.10;99.90;;;;;;5111697;28;20478;-71
2021/07/17 02:45:32;;;;;;;5.32;4.93;;;22.10;99.90;;;;;;5112577;28;20054;-72
2021/07/17 02:47:57;;;;;;;5.90;4.25;;;22.20;99.90;;;;;;5112456;28;20023;-72
2021/07/17 02:50:24;;;;;;;4.60;4.20;;;22.30;99.90;;;;;;5111353;28;20058;-72
2021/07/17 02:52:49;;;;;;;7.72;3.97;;;22.30;99.90;;;;;;5112550;28;20024;-72
2021/07/17 02:55:15;;;;;;;4.47;4.07;;;22.30;99.90;;;;;;5112377;28;20042;-72
2021/07/17 02:57:41;;;;;;;5.88;3.60;;;22.40;99.90;;;;;;5106051;28;20062;-73
2021/07/17 03:00:10;;;;;;;9.40;4.95;;;22.40;99.90;;;;;;5111762;28;20015;-72
2021/07/17 03:02:35;;;;;;;3.90;3.55;;;22.30;99.90;;;;;;5112369;28;20024;-72
2021/07/17 03:05:01;;;;;;;5.20;4.25;;;22.20;99.90;;;;;;5112716;28;20068;-72
2021/07/17 03:07:27;;;;;;;6.57;3.92;;;22.20;99.90;;;;;;5114703;28;20027;-71
2021/07/17 03:09:53;;;;;;;5.82;3.85;;;22.20;99.90;;;;;;5115259;28;20019;-71
2021/07/17 03:12:18;;;;;;;5.20;4.70;;;22.10;99.90;;;;;;5116226;28;20084;-72
2021/07/17 03:14:44;;;;;;;4.63;4.25;;;22.10;99.90;;;;;;5115228;28;20434;-71
2021/07/17 03:17:12;;;;;;;8.38;4.43;;;22.10;99.90;;;;;;5112623;28;20028;-72
2021/07/17 03:19:41;;;;;;;8.80;4.40;;;22.00;99.90;;;;;;5110842;28;20046;-73
2021/07/17 03:22:07;;;;;;;6.10;3.88;;;22.00;99.90;;;;;;5111195;28;20501;-73
2021/07/17 03:24:33;;;;;;;5.30;3.58;;;22.00;99.90;;;;;;5111932;28;20153;-72
2021/07/17 03:26:59;;;;;;;5.03;4.53;;;22.10;99.90;;;;;;5110577;28;20552;-72
2021/07/17 03:29:25;;;;;;;4.45;4.03;;;21.90;99.90;;;;;;5110886;28;20050;-72
2021/07/17 03:31:51;;;;;;;4.63;4.00;;;21.90;99.90;;;;;;5111751;28;20030;-71
2021/07/17 03:34:16;;;;;;;4.97;4.43;;;21.80;99.90;;;;;;5110322;28;20114;-72
2021/07/17 03:36:42;;;;;;;7.88;4.88;;;21.70;99.90;;;;;;5110248;28;20533;-72
2021/07/17 03:39:08;;;;;;;4.60;4.18;;;21.80;99.90;;;;;;5111537;28;20020;-72
2021/07/17 03:41:36;;;;;;;4.70;4.32;;;21.70;99.90;;;;;;5111566;28;20068;-72
2021/07/17 03:44:02;;;;;;;4.93;4.60;;;21.60;99.90;;;;;;5111501;28;20092;-72
2021/07/17 03:46:28;;;;;;;5.13;4.63;;;21.60;99.90;;;;;;5110265;28;20028;-72
2021/07/17 03:48:53;;;;;;;6.10;5.15;;;21.50;99.90;;;;;;5111617;28;20493;-72
2021/07/17 03:51:19;;;;;;;5.90;4.90;;;21.50;99.90;;;;;;5110482;28;20038;-72
2021/07/17 03:53:45;;;;;;;5.18;4.68;;;21.40;99.90;;;;;;5111207;28;20027;-72
2021/07/17 03:56:11;;;;;;;6.05;5.28;;;21.30;99.90;;;;;;5111376;28;20015;-72
2021/07/17 03:58:37;;;;;;;8.32;5.55;;;21.30;99.90;;;;;;5111274;28;20019;-74
2021/07/17 04:01:02;;;;;;;5.15;4.65;;;21.30;99.90;;;;;;5110009;28;20065;-72
2021/07/17 04:03:28;;;;;;;7.43;4.32;;;21.30;99.90;;;;;;5111555;28;20089;-71
2021/07/17 04:05:54;;;;;;;4.78;4.47;;;21.40;99.90;;;;;;5111613;28;20054;-72
2021/07/17 04:08:20;;;;;;;5.75;5.05;;;21.50;99.90;;;;;;5110377;28;20032;-72
2021/07/17 04:10:45;;;;;;;5.20;4.88;;;21.60;99.90;;;;;;5111363;28;20050;-72
2021/07/17 04:13:11;;;;;;;6.50;5.25;;;21.60;99.90;;;;;;5111383;28;20547;-72
2021/07/17 04:15:37;;;;;;;4.90;4.50;;;21.80;99.90;;;;;;5109955;28;20069;-72
2021/07/17 04:18:03;;;;;;;7.85;5.07;;;22.00;99.90;;;;;;5111116;28;20036;-71
2021/07/17 04:20:28;;;;;;;5.93;4.45;;;22.00;99.90;;;;;;5110038;28;20020;-71
2021/07/17 04:22:54;;;;;;;5.35;4.70;;;22.00;99.90;;;;;;5110099;28;20027;-72
2021/07/17 04:25:20;;;;;;;4.35;4.05;;;22.10;99.90;;;;;;5111405;28;20039;-71
2021/07/17 04:27:46;;;;;;;5.93;4.38;;;22.00;99.90;;;;;;5109682;28;20466;-71
2021/07/17 04:30:12;;;;;;;7.47;5.55;;;21.90;99.90;;;;;;5111340;28;20085;-72
2021/07/17 04:32:38;;;;;;;6.07;4.63;;;21.90;99.90;;;;;;5112598;28;20027;-72
2021/07/17 04:35:06;;;;;;;6.35;5.05;;;21.80;99.90;;;;;;5111937;28;20053;-72
2021/07/17 04:37:32;;;;;;;7.78;4.80;;;21.60;99.90;;;;;;5113192;28;20030;-72
2021/07/17 04:39:58;;;;;;;9.13;4.95;;;21.40;99.90;;;;;;5112255;28;20016;-72
2021/07/17 04:42:23;;;;;;;7.05;5.07;;;21.50;99.90;;;;;;5111914;28;20020;-73
2021/07/17 04:44:49;;;;;;;5.55;5.10;;;21.60;99.90;;;;;;5110235;28;20069;-72
2021/07/17 04:47:15;;;;;;;9.68;5.68;;;21.50;99.90;;;;;;5110132;28;20401;-72
2021/07/17 04:49:41;;;;;;;7.32;5.50;;;21.50;99.90;;;;;;5110001;28;20065;-72
2021/07/17 04:52:07;;;;;;;5.60;4.70;;;21.50;99.90;;;;;;5110114;28;20118;-71
2021/07/17 04:54:33;;;;;;;5.97;4.97;;;21.70;99.90;;;;;;5109360;28;20103;-72
2021/07/17 04:56:59;;;;;;;4.97;4.63;;;21.70;99.90;;;;;;5109685;28;20047;-72
2021/07/17 04:59:24;;;;;;;6.95;5.53;;;21.70;99.90;;;;;;5103501;28;20016;-72
2021/07/17 05:01:50;;;;;;;5.60;5.20;;;21.70;99.90;;;;;;5109471;28;20020;-72
2021/07/17 05:04:16;;;;;;;7.57;5.05;;;21.70;99.90;;;;;;5111403;28;20024;-72
2021/07/17 05:06:45;;;;;;;5.63;5.05;;;21.80;99.90;;;;;;5109865;28;20510;-72
2021/07/17 05:09:11;;;;;;;4.90;4.43;;;21.90;99.90;;;;;;5109562;28;20106;-71
2021/07/17 05:11:37;;;;;;;4.72;4.32;;;21.90;99.90;;;;;;5110385;28;20027;-71
2021/07/17 05:14:03;;;;;;;5.57;5.07;;;22.00;99.90;;;;;;5110792;28;20334;-72
2021/07/17 05:16:29;;;;;;;5.85;5.00;;;22.20;99.90;;;;;;5109318;28;20583;-72
2021/07/17 05:18:55;;;;;;;4.78;4.45;;;22.30;99.90;;;;;;5109103;28;20028;-72
2021/07/17 05:21:20;;;;;;;7.53;5.60;;;22.40;99.90;;;;;;5109769;28;20024;-72
2021/07/17 05:23:47;;;;;;;12.95;8.50;;;22.40;99.90;;;;;;5110577;28;20028;-72
2021/07/17 05:26:13;;;;;;;14.98;12.52;;;22.50;99.90;;;;;;5111207;28;20621;-72
2021/07/17 05:28:39;;;;;;;7.03;6.35;;;22.60;99.90;;;;;;5110395;28;20102;-72
2021/07/17 05:31:04;;;;;;;9.18;7.47;;;22.50;99.90;;;;;;5108867;28;20484;-72
2021/07/17 05:33:30;;;;;;;8.18;5.68;;;22.50;99.90;;;;;;5110286;28;20081;-71
2021/07/17 05:35:56;;;;;;;5.70;4.70;;;22.50;99.90;;;;;;5111263;28;20361;-73
2021/07/17 05:38:22;;;;;;;5.28;4.00;;;22.30;99.90;;;;;;5112352;28;20434;-74
2021/07/17 05:40:50;;;;;;;8.95;5.80;;;22.10;99.90;;;;;;5112645;28;20024;-74
2021/07/17 05:43:16;;;;;;;7.50;6.18;;;22.10;99.90;;;;;;5112840;28;20073;-75
2021/07/17 05:45:42;;;;;;;6.18;5.57;;;22.10;99.90;;;;;;5113998;28;20016;-73
2021/07/17 05:48:07;;;;;;;13.35;7.25;;;22.30;99.90;;;;;;5112215;28;20031;-74
2021/07/17 05:50:33;;;;;;;10.20;5.40;;;22.30;99.90;;;;;;5113867;28;20031;-73
2021/07/17 05:53:05;;;;;;;6.35;5.75;;;22.20;99.90;;;;;;5112382;28;20115;-72
2021/07/17 05:55:31;;;;;;;6.70;6.13;;;22.20;99.90;;;;;;5114035;28;20034;-74
2021/07/17 05:57:56;;;;;;;6.10;5.03;;;22.20;99.90;;;;;;5114541;28;20028;-72
2021/07/17 06:00:22;;;;;;;8.32;5.38;;;22.10;99.90;;;;;;5112138;28;20390;-72
2021/07/17 06:02:48;;;;;;;7.22;5.22;;;22.10;99.90;;;;;;5113938;28;20019;-72
2021/07/17 06:05:14;;;;;;;8.82;5.85;;;22.10;99.90;;;;;;5113954;28;20509;-71
2021/07/17 06:07:39;;;;;;;6.97;6.38;;;22.00;99.90;;;;;;5112462;28;20088;-72
2021/07/17 06:10:05;;;;;;;13.93;6.82;;;21.90;99.90;;;;;;5112645;28;20031;-73
2021/07/17 06:12:31;;;;;;;7.28;6.45;;;21.90;99.90;;;;;;5113404;28;20385;-72
2021/07/17 06:14:57;;;;;;;9.23;6.20;;;21.90;99.90;;;;;;5113096;28;20104;-72
2021/07/17 06:17:23;;;;;;;5.57;5.05;;;21.80;99.90;;;;;;5111606;28;20115;-71
2021/07/17 06:19:49;;;;;;;6.72;6.15;;;22.00;99.90;;;;;;5111779;28;20118;-72
2021/07/17 06:22:16;;;;;;;8.52;6.15;;;22.00;99.90;;;;;;5113201;27;20466;-72
2021/07/17 06:24:42;;;;;;;5.80;5.22;;;22.00;99.90;;;;;;5111793;28;20035;-71
2021/07/17 06:27:08;;;;;;;5.55;5.00;;;22.10;99.90;;;;;;5111896;28;20031;-72
2021/07/17 06:29:35;;;;;;;7.50;6.00;;;22.10;99.90;;;;;;5111407;28;20027;-71
2021/07/17 06:32:01;;;;;;;6.45;5.80;;;22.20;99.90;;;;;;5113561;28;20020;-74
2021/07/17 06:34:27;;;;;;;8.77;5.25;;;22.30;99.90;;;;;;5111419;28;20023;-71
2021/07/17 06:36:53;;;;;;;8.90;5.40;;;22.20;99.90;;;;;;5111884;28;20117;-72
2021/07/17 06:39:19;;;;;;;6.03;5.43;;;22.20;99.90;;;;;;5111687;28;20641;-73
2021/07/17 06:41:45;;;;;;;7.13;6.45;;;22.20;99.90;;;;;;5113403;28;20031;-72
2021/07/17 06:44:11;;;;;;;10.88;6.60;;;22.40;99.90;;;;;;5111645;28;20034;-72
2021/07/17 06:46:37;;;;;;;7.68;6.07;;;22.30;99.90;;;;;;5112785;28;20085;-72
2021/07/17 06:49:03;;;;;;;6.10;5.50;;;22.40;99.90;;;;;;5113429;28;20435;-72
2021/07/17 06:51:28;;;;;;;6.00;5.47;;;22.40;99.90;;;;;;5111246;28;20492;-72
2021/07/17 06:53:54;;;;;;;10.27;5.63;;;22.30;99.90;;;;;;5111247;28;20035;-73
2021/07/17 06:56:21;;;;;;;6.40;5.05;;;22.30;99.90;;;;;;5110949;28;20027;-73
2021/07/17 06:58:47;;;;;;;7.85;4.93;;;22.30;99.90;;;;;;5111671;28;20095;-72
2021/07/17 07:01:12;;;;;;;6.35;4.53;;;22.40;99.90;;;;;;5107378;28;20043;-72
2021/07/17 07:03:38;;;;;;;7.93;4.90;;;22.50;99.90;;;;;;5112341;28;20476;-73
2021/07/17 07:06:04;;;;;;;9.82;4.70;;;22.60;99.90;;;;;;5112523;28;20020;-73
2021/07/17 07:08:31;;;;;;;6.28;4.72;;;22.60;99.90;;;;;;5112126;28;20024;-72
2021/07/17 07:10:57;;;;;;;6.63;6.03;;;22.60;99.90;;;;;;5111175;28;20032;-74
2021/07/17 07:13:26;;;;;;;5.15;4.63;;;22.70;99.90;;;;;;5114473;28;20053;-73
2021/07/17 07:15:53;;;;;;;5.53;5.03;;;22.70;99.90;;;;;;5112160;28;20492;-73
2021/07/17 07:18:18;;;;;;;5.10;4.60;;;22.80;99.90;;;;;;5111735;28;20500;-73
2021/07/17 07:20:44;;;;;;;6.10;4.65;;;22.70;99.90;;;;;;5112567;28;20019;-72
2021/07/17 07:23:10;;;;;;;7.07;4.93;;;22.80;99.90;;;;;;5112365;28;20162;-72
2021/07/17 07:25:36;;;;;;;5.63;4.93;;;22.70;99.90;;;;;;5112016;28;20023;-72
2021/07/17 07:28:02;;;;;;;9.98;4.65;;;22.70;99.90;;;;;;5112282;28;20034;-73
2021/07/17 07:30:28;;;;;;;5.20;4.70;;;22.60;99.90;;;;;;5115462;28;20584;-73
2021/07/17 07:32:54;;;;;;;6.90;5.63;;;22.50;99.90;;;;;;5116088;28;20027;-72
2021/07/17 07:35:22;;;;;;;6.50;5.38;;;22.50;99.90;;;;;;5117483;28;20040;-72
2021/07/17 07:37:48;;;;;;;7.85;5.40;;;22.60;99.90;;;;;;5115087;28;20046;-72
2021/07/17 07:40:15;;;;;;;7.72;5.10;;;22.60;99.90;;;;;;5111240;28;20093;-73
2021/07/17 07:42:41;;;;;;;7.43;5.10;;;22.80;99.90;;;;;;5111962;28;20043;-73
2021/07/17 07:45:07;;;;;;;10.25;5.00;;;22.80;99.90;;;;;;5111702;28;20031;-73
2021/07/17 07:47:35;;;;;;;6.25;4.72;;;22.80;99.90;;;;;;5111396;28;20031;-72
2021/07/17 07:50:08;;;;;;;5.75;5.25;;;22.80;99.90;;;;;;5110242;28;20027;-73
2021/07/17 07:52:34;;;;;;;13.88;5.47;;;22.90;99.90;;;;;;5110021;28;20020;-73
2021/07/17 07:55:00;;;;;;;6.35;5.53;;;23.00;99.90;;;;;;5109867;28;20076;-73
2021/07/17 07:57:26;;;;;;;7.97;5.93;;;23.10;99.90;;;;;;5110968;28;20026;-73
2021/07/17 07:59:52;;;;;;;7.00;4.65;;;23.10;99.90;;;;;;5109319;28;20019;-73
2021/07/17 08:02:17;;;;;;;10.30;5.53;;;23.10;99.90;;;;;;5109380;28;20505;-73
2021/07/17 08:04:43;;;;;;;8.55;4.97;;;23.00;99.90;;;;;;5109687;28;20027;-72
2021/07/17 08:07:09;;;;;;;9.07;5.25;;;23.00;99.90;;;;;;5109474;28;20028;-73
2021/07/17 08:09:35;;;;;;;6.47;5.88;;;23.00;99.90;;;;;;5109889;28;20481;-73
2021/07/17 08:12:01;;;;;;;6.13;5.45;;;23.00;99.90;;;;;;5109532;28;20080;-72
2021/07/17 08:14:27;;;;;;;7.20;5.38;;;23.10;99.90;;;;;;5111053;28;20462;-73
2021/07/17 08:16:53;;;;;;;8.80;5.40;;;23.20;99.90;;;;;;5109893;28;20047;-73
2021/07/17 08:19:18;;;;;;;7.57;5.63;;;23.20;99.90;;;;;;5111108;28;20506;-73
2021/07/17 08:21:44;;;;;;;6.20;5.60;;;23.30;99.90;;;;;;5111063;28;20065;-72
2021/07/17 08:24:10;;;;;;;5.82;5.05;;;23.30;99.90;;;;;;5109689;28;20036;-73
2021/07/17 08:26:37;;;;;;;6.72;5.50;;;23.40;99.90;;;;;;5110943;28;20073;-72
2021/07/17 08:29:03;;;;;;;10.35;4.97;;;23.50;99.90;;;;;;5109219;28;20024;-72
2021/07/17 08:31:29;;;;;;;5.43;4.97;;;23.50;99.90;;;;;;5109470;28;20494;-72
2021/07/17 08:33:55;;;;;;;7.13;5.25;;;23.60;99.90;;;;;;5110736;28;20092;-74
2021/07/17 08:36:21;;;;;;;8.15;5.50;;;23.60;99.90;;;;;;5109763;28;20055;-73
2021/07/17 08:38:46;;;;;;;8.35;5.22;;;23.70;99.90;;;;;;5109885;28;20478;-74
2021/07/17 08:41:13;;;;;;;7.50;5.13;;;23.80;99.90;;;;;;5110368;28;20024;-73
2021/07/17 08:43:39;;;;;;;6.05;5.50;;;23.90;99.90;;;;;;5111851;28;20481;-74
2021/07/17 08:46:06;;;;;;;5.88;4.88;;;24.00;99.90;;;;;;5112301;28;20470;-76
2021/07/17 08:48:35;;;;;;;5.22;4.80;;;24.00;99.90;;;;;;5110753;28;20027;-74
2021/07/17 08:51:02;;;;;;;6.28;5.53;;;24.00;99.90;;;;;;5110433;28;20027;-74
2021/07/17 08:53:28;;;;;;;5.85;5.10;;;24.00;99.90;;;;;;5110489;28;20035;-76
2021/07/17 08:55:55;;;;;;;5.43;4.93;;;24.30;99.90;;;;;;5111972;28;20205;-73
2021/07/17 08:58:21;;;;;;;5.30;4.88;;;24.40;99.90;;;;;;5110324;28;20030;-73
2021/07/17 09:00:47;;;;;;;6.00;4.40;;;24.50;99.90;;;;;;5100053;28;20095;-73
2021/07/17 09:03:21;;;;;;;4.18;3.80;;;24.60;99.90;;;;;;5111788;28;20477;-75
2021/07/17 09:05:49;;;;;;;4.03;3.55;;;24.60;99.90;;;;;;5110517;28;20035;-74
2021/07/17 09:08:19;;;;;;;4.85;4.45;;;24.80;99.90;;;;;;5111779;28;20027;-74
2021/07/17 09:10:50;;;;;;;3.53;3.22;;;24.80;99.90;;;;;;5112762;28;20485;-73
2021/07/17 09:13:30;;;;;;;13.27;4.57;;;24.50;99.90;;;;;;5115835;28;20038;-77
2021/07/17 09:16:02;;;;;;;3.75;3.20;;;24.50;99.90;;;;;;5115917;28;20068;-73
2021/07/17 09:18:44;;;;;;;8.20;2.80;;;24.50;99.90;;;;;;5115966;28;20058;-74
2021/07/17 09:21:39;;;;;;;4.13;3.55;;;24.50;99.90;;;;;;5114123;28;20035;-74
2021/07/17 09:24:09;;;;;;;3.40;3.10;;;24.50;99.90;;;;;;5116191;28;20020;-72
2021/07/17 09:26:40;;;;;;;7.90;3.60;;;24.60;99.90;;;;;;5114704;28;20051;-76
2021/07/17 09:29:06;;;;;;;3.30;3.00;;;24.60;99.90;;;;;;5115765;28;20061;-74
2021/07/17 09:31:48;;;;;;;3.38;2.70;;;24.70;99.90;;;;;;5114254;28;20630;-76
2021/07/17 09:34:15;;;;;;;5.78;2.83;;;24.80;99.90;;;;;;5115133;28;20027;-75
2021/07/17 09:37:04;;;;;;;2.63;2.42;;;24.80;99.90;;;;;;5115179;27;20493;-75
2021/07/17 09:39:49;;;;;;;2.83;2.40;;;24.80;99.90;;;;;;5115056;28;20034;-74
2021/07/17 09:42:17;;;;;;;2.72;2.53;;;24.90;99.90;;;;;;5115052;28;20016;-75
2021/07/17 09:44:48;;;;;;;4.07;2.40;;;25.00;99.90;;;;;;5114788;28;20085;-74
2021/07/17 09:47:19;;;;;;;6.80;2.45;;;25.20;99.90;;;;;;5113733;28;20027;-74
2021/07/17 09:49:46;;;;;;;3.38;2.20;;;25.50;99.90;;;;;;5114845;28;20493;-74
2021/07/17 09:52:21;;;;;;;3.72;1.92;;;25.80;99.90;;;;;;5114804;28;20044;-74
2021/07/17 09:55:07;;;;;;;2.25;2.08;;;25.90;99.90;;;;;;5115096;28;20038;-75
2021/07/17 09:57:34;;;;;;;4.10;1.85;;;26.00;99.90;;;;;;5114724;28;20015;-74
2021/07/17 10:00:03;;;;;;;2.67;2.33;;;25.80;99.90;;;;;;5114054;28;20073;-74
2021/07/17 10:02:30;;;;;;;1.98;1.85;;;25.90;99.90;;;;;;5113123;28;20032;-75
2021/07/17 10:04:55;;;;;;;2.97;1.90;;;26.00;99.90;;;;;;5114193;28;20035;-73
2021/07/17 10:07:21;;;;;;;2.83;1.83;;;26.10;99.90;;;;;;5114162;28;20504;-74
2021/07/17 10:09:50;;;;;;;2.28;2.08;;;25.90;99.90;;;;;;5112832;28;20024;-75
2021/07/17 10:12:16;;;;;;;3.70;2.30;;;26.10;99.90;;;;;;5112591;28;20028;-74
2021/07/17 10:14:43;;;;;;;7.22;2.08;;;26.20;99.90;;;;;;5113895;28;20030;-74
2021/07/17 10:17:14;;;;;;;4.85;2.13;;;26.30;99.90;;;;;;5114001;28;20085;-75
2021/07/17 10:19:41;;;;;;;;;;;26.00;99.90;;;;;;5113120;28;20023;-74
2021/07/17 10:22:08;;;;;;;3.97;2.08;;;25.80;99.90;;;;;;5112096;28;19990;-75
2021/07/17 10:24:35;;;;;;;5.38;2.00;;;25.80;99.90;;;;;;5112960;28;20118;-73
2021/07/17 10:27:01;;;;;;;2.45;1.60;;;25.90;99.90;;;;;;5114110;28;20493;-74
2021/07/17 10:29:27;;;;;;;2.17;1.60;;;25.90;99.90;;;;;;5113554;28;20170;-75
2021/07/17 10:31:56;;;;;;;1.70;1.60;;;25.70;99.90;;;;;;5114489;28;20023;-74
2021/07/17 10:34:21;;;;;;;3.22;2.08;;;25.70;99.90;;;;;;5112587;28;20032;-75
2021/07/17 10:36:57;;;;;;;2.47;1.77;;;25.50;99.90;;;;;;5113942;28;20025;-74
2021/07/17 10:39:26;;;;;;;5.10;1.85;;;25.60;99.90;;;;;;5112830;28;20076;-72
2021/07/17 10:41:52;;;;;;;4.40;2.05;;;25.50;99.90;;;;;;5112468;28;20104;-76
2021/07/17 10:44:45;;;;;;;2.35;1.83;;;25.60;99.90;;;;;;5111772;28;20023;-73
2021/07/17 10:47:11;;;;;;;4.60;1.92;;;25.50;99.90;;;;;;5112738;28;20585;-73
2021/07/17 10:49:39;;;;;;;5.03;3.13;;;25.40;99.90;;;;;;5111204;28;20107;-73
2021/07/17 10:52:06;;;;;;;2.53;2.33;;;25.50;99.90;;;;;;5112628;28;20035;-72
2021/07/17 10:54:32;;;;;;;5.13;2.28;;;25.50;99.90;;;;;;5111201;28;20061;-74
2021/07/17 10:56:59;;;;;;;4.72;1.90;;;25.50;99.90;;;;;;5111326;28;20058;-73
2021/07/17 10:59:25;;;;;;;2.42;2.15;;;25.60;99.90;;;;;;5112670;28;20133;-74
2021/07/17 11:02:02;;;;;;;5.43;2.75;;;25.80;99.90;;;;;;5101632;28;20040;-73
2021/07/17 11:04:44;;;;;;;2.85;2.42;;;25.80;99.90;;;;;;5111406;28;20389;-73
2021/07/17 11:07:19;;;;;;;4.28;1.65;;;25.80;99.90;;;;;;5113097;28;20416;-75
2021/07/17 11:09:50;;;;;;;3.55;2.10;;;25.80;99.90;;;;;;5112904;28;20053;-73
2021/07/17 11:12:20;;;;;;;3.05;2.78;;;25.80;99.90;;;;;;5112712;28;20463;-73
2021/07/17 11:14:46;;;;;;;2.33;1.77;;;25.60;99.90;;;;;;5111231;28;20035;-74
2021/07/17 11:17:13;;;;;;;2.65;2.08;;;25.60;99.90;;;;;;5112219;28;20470;-74
2021/07/17 11:19:39;;;;;;;9.88;2.47;;;25.70;99.90;;;;;;5112308;28;20028;-73
2021/07/17 11:22:14;;;;;;;5.70;2.58;;;25.70;99.90;;;;;;5112026;28;20046;-72
2021/07/17 11:24:41;;;;;;;2.38;2.05;;;25.70;99.90;;;;;;5110714;28;20023;-73
2021/07/17 11:27:15;;;;;;;1.80;1.70;;;25.60;99.90;;;;;;5111000;28;20485;-74
2021/07/17 11:29:45;;;;;;;6.30;2.60;;;25.60;99.90;;;;;;5110613;28;20076;-74
2021/07/17 11:32:12;;;;;;;4.65;2.53;;;25.60;99.90;;;;;;5110579;28;20038;-73
2021/07/17 11:34:56;;;;;;;6.85;2.65;;;25.60;99.90;;;;;;5110425;28;20024;-74
2021/07/17 11:37:25;;;;;;;3.00;2.28;;;25.60;99.90;;;;;;5114685;28;20389;-74
2021/07/17 11:39:55;;;;;;;3.25;2.92;;;25.70;99.90;;;;;;5120254;28;20028;-73
2021/07/17 11:42:21;;;;;;;2.17;1.90;;;25.70;99.90;;;;;;5119312;28;20027;-74
2021/07/17 11:44:53;;;;;;;5.13;2.90;;;25.60;99.90;;;;;;5117463;28;20027;-73
2021/07/17 11:47:27;;;;;;;7.68;2.30;;;25.60;99.90;;;;;;5111042;28;20019;-74
2021/07/17 11:49:54;;;;;;;3.22;2.35;;;25.60;99.90;;;;;;5110646;28;20031;-73
2021/07/17 11:52:32;;;;;;;4.03;2.72;;;25.50;99.90;;;;;;5111875;28;20028;-73
2021/07/17 11:55:13;;;;;;;2.17;2.00;;;25.50;99.90;;;;;;5111375;28;20034;-73
2021/07/17 11:57:48;;;;;;;4.07;2.40;;;25.40;99.90;;;;;;5109767;28;20054;-73
2021/07/17 12:00:22;;;;;;;3.38;2.13;;;25.40;99.90;;;;;;5109909;28;20019;-74
2021/07/17 12:02:58;;;;;;;2.30;2.10;;;25.40;99.90;;;;;;5110522;28;20046;-74
2021/07/17 12:05:25;;;;;;;2.50;1.42;;;25.40;99.90;;;;;;5109675;28;20393;-74
2021/07/17 12:07:50;;;;;;;2.88;2.40;;;25.40;99.90;;;;;;5110822;28;20024;-74
2021/07/17 12:10:24;;;;;;;6.95;2.08;;;25.50;99.90;;;;;;5111018;28;20076;-74
2021/07/17 12:12:52;;;;;;;7.82;2.13;;;25.60;99.90;;;;;;5111229;28;20028;-73
2021/07/17 12:15:23;;;;;;;3.10;2.17;;;25.60;99.90;;;;;;5110065;28;20142;-73
2021/07/17 12:17:50;;;;;;;2.13;1.50;;;25.50;99.90;;;;;;5110898;28;20504;-73
2021/07/17 12:20:21;;;;;;;2.15;1.95;;;25.70;99.90;;;;;;5109522;28;20382;-74
2021/07/17 12:23:11;;;;;;;5.28;1.80;;;25.50;99.90;;;;;;5109865;28;20020;-74
2021/07/17 12:25:39;;;;;;;1.80;1.40;;;25.60;99.90;;;;;;5111293;28;20069;-73
2021/07/17 12:28:08;;;;;;;3.25;1.60;;;25.50;99.90;;;;;;5111040;28;20034;-73
2021/07/17 12:30:46;;;;;;;5.10;2.08;;;25.40;99.90;;;;;;5110487;28;20035;-72
2021/07/17 12:33:29;;;;;;;2.90;1.60;;;25.30;99.90;;;;;;5111231;28;20081;-75
2021/07/17 12:36:09;;;;;;;3.88;1.33;;;25.20;99.90;;;;;;5110886;28;20038;-74
2021/07/17 12:38:40;;;;;;;2.72;1.55;;;25.20;99.90;;;;;;5110856;28;20101;-73
2021/07/17 12:41:10;;;;;;;3.13;1.75;;;25.30;99.90;;;;;;5111235;28;20012;-74
2021/07/17 12:43:49;;;;;;;10.05;1.58;;;25.30;99.90;;;;;;5109723;28;20055;-74
2021/07/17 12:46:16;;;;;;;5.28;2.17;;;25.20;99.90;;;;;;5113352;28;20023;-73
2021/07/17 12:48:57;;;;;;;3.92;1.48;;;25.20;99.90;;;;;;5114021;28;20024;-74